sensor_id;sensor_type;location;lat;lon;timestamp;temperature;humidity
22442;DHT22;11388;54.456;9.752;2023-12-07T00:01:59;2.70;99.90
22442;DHT22;11388;54.456;9.752;2023-12-07T00:04:25;2.70;99.90
22442;DHT22;11388;54.456;9.752;2023-12-07T00:06:51;2.60;99.90
22442;DHT22;11388;54.456;9.752;2023-12-07T00:09:16;2.60;99.90
22442;DHT22;11388;54.456;9.752;2023-12-07T00:11:42;2.70;99.90
22442;DHT22;11388;54.456;9.752;2023-12-07T00:14:08;2.70;99.90
22442;DHT22;11388;54.456;9.752;2023-12-07T00:16:33;2.70;99.90
22442;DHT22;11388;54.456;9.752;2023-12-07T00:18:59;2.70;99.90
22442;DHT22;11388;54.456;9.752;2023-12-07T00:21:25;2.70;99.90
22442;DHT22;11388;54.456;9.752;2023-12-07T00:23:50;2.70;99.90
22442;DHT22;11388;54.456;9.752;2023-12-07T00:26:16;2.70;99.90
22442;DHT22;11388;54.456;9.752;2023-12-07T00:28:42;2.70;99.90
22442;DHT22;11388;54.456;9.752;2023-12-07T00:31:07;2.60;99.90
22442;DHT22;11388;54.456;9.752;2023-12-07T00:33:34;2.60;99.90
22442;DHT22;11388;54.456;9.752;2023-12-07T00:36:00;2.70;99.90
22442;DHT22;11388;54.456;9.752;2023-12-07T00:38:26;2.70;99.90
22442;DHT22;11388;54.456;9.752;2023-12-07T00:40:52;2.80;99.90
22442;DHT22;11388;54.456;9.752;2023-12-07T00:43:17;2.80;99.90
22442;DHT22;11388;54.456;9.752;2023-12-07T00:45:43;2.80;99.90
22442;DHT22;11388;54.456;9.752;2023-12-07T00:48:09;2.80;99.90
22442;DHT22;11388;54.456;9.752;2023-12-07T00:50:35;2.80;99.90
22442;DHT22;11388;54.456;9.752;2023-12-07T00:53:00;2.80;99.90
22442;DHT22;11388;54.456;9.752;2023-12-07T00:55:26;2.80;99.90
22442;DHT22;11388;54.456;9.752;2023-12-07T00:57:52;2.90;99.90
22442;DHT22;11388;54.456;9.752;2023-12-07T01:00:17;2.80;99.90
22442;DHT22;11388;54.456;9.752;2023-12-07T01:02:44;2.90;99.90
22442;DHT22;11388;54.456;9.752;2023-12-07T01:05:09;3.00;99.90
22442;DHT22;11388;54.456;9.752;2023-12-07T01:07:35;3.00;99.90
22442;DHT22;11388;54.456;9.752;2023-12-07T01:10:01;3.00;99.90
22442;DHT22;11388;54.456;9.752;2023-12-07T01:12:27;3.00;99.90
22442;DHT22;11388;54.456;9.752;2023-12-07T01:14:52;3.00;99.90
22442;DHT22;11388;54.456;9.752;2023-12-07T01:17:18;3.00;99.90
22442;DHT22;11388;54.456;9.752;2023-12-07T01:19:44;3.00;99.90
22442;DHT22;11388;54.456;9.752;2023-12-07T01:22:10;2.90;99.90
22442;DHT22;11388;54.456;9.752;2023-12-07T01:24:35;2.80;99.90
22442;DHT22;11388;54.456;9.752;2023-12-07T01:27:01;2.70;99.90
22442;DHT22;11388;54.456;9.752;2023-12-07T01:29:27;2.60;99.90
22442;DHT22;11388;54.456;9.752;2023-12-07T01:31:52;2.60;99.90
22442;DHT22;11388;54.456;9.752;2023-12-07T01:34:18;2.60;99.90
22442;DHT22;11388;54.456;9.752;2023-12-07T01:36:44;2.60;99.90
22442;DHT22;11388;54.456;9.752;2023-12-07T01:39:10;2.60;99.90
22442;DHT22;11388;54.456;9.752;2023-12-07T01:41:39;2.60;99.90
22442;DHT22;11388;54.456;9.752;2023-12-07T01:44:05;2.60;99.90
22442;DHT22;11388;54.456;9.752;2023-12-07T01:46:32;2.60;99.90
22442;DHT22;11388;54.456;9.752;2023-12-07T01:48:58;2.70;99.90
22442;DHT22;11388;54.456;9.752;2023-12-07T01:51:25;2.70;99.90
22442;DHT22;11388;54.456;9.752;2023-12-07T01:53:52;2.60;99.90
22442;DHT22;11388;54.456;9.752;2023-12-07T01:56:19;2.60;99.90
22442;DHT22;11388;54.456;9.752;2023-12-07T01:58:45;2.70;99.90
22442;DHT22;11388;54.456;9.752;2023-12-07T02:01:11;2.60;99.90
22442;DHT22;11388;54.456;9.752;2023-12-07T02:03:40;2.60;99.90
22442;DHT22;11388;54.456;9.752;2023-12-07T02:06:06;2.60;99.90
22442;DHT22;11388;54.456;9.752;2023-12-07T02:08:34;2.50;99.90
22442;DHT22;11388;54.456;9.752;2023-12-07T02:11:00;2.60;99.90
22442;DHT22;11388;54.456;9.752;2023-12-07T02:13:26;2.50;99.90
22442;DHT22;11388;54.456;9.752;2023-12-07T02:15:53;2.40;99.90
22442;DHT22;11388;54.456;9.752;2023-12-07T02:18:32;2.50;99.90
22442;DHT22;11388;54.456;9.752;2023-12-07T02:23:35;2.60;99.90
22442;DHT22;11388;54.456;9.752;2023-12-07T02:29:15;2.70;99.90
22442;DHT22;11388;54.456;9.752;2023-12-07T02:31:40;2.70;99.90
22442;DHT22;11388;54.456;9.752;2023-12-07T02:34:06;2.70;99.90
22442;DHT22;11388;54.456;9.752;2023-12-07T02:36:32;2.70;99.90
22442;DHT22;11388;54.456;9.752;2023-12-07T02:39:01;2.60;99.90
22442;DHT22;11388;54.456;9.752;2023-12-07T02:41:31;2.60;99.90
22442;DHT22;11388;54.456;9.752;2023-12-07T02:43:57;2.60;99.90
22442;DHT22;11388;54.456;9.752;2023-12-07T02:46:26;2.60;99.90
22442;DHT22;11388;54.456;9.752;2023-12-07T02:48:52;2.70;99.90
22442;DHT22;11388;54.456;9.752;2023-12-07T02:51:18;2.70;99.90
22442;DHT22;11388;54.456;9.752;2023-12-07T02:53:45;2.70;99.90
22442;DHT22;11388;54.456;9.752;2023-12-07T07:31:20;2.60;99.90
22442;DHT22;11388;54.456;9.752;2023-12-07T07:37:11;2.60;99.90
22442;DHT22;11388;54.456;9.752;2023-12-07T07:39:39;2.60;99.90
22442;DHT22;11388;54.456;9.752;2023-12-07T07:42:04;2.60;99.90
22442;DHT22;11388;54.456;9.752;2023-12-07T07:44:31;2.70;99.90
22442;DHT22;11388;54.456;9.752;2023-12-07T07:46:57;2.70;99.90
22442;DHT22;11388;54.456;9.752;2023-12-07T07:49:23;2.70;99.90
22442;DHT22;11388;54.456;9.752;2023-12-07T07:55:06;2.60;99.90
22442;DHT22;11388;54.456;9.752;2023-12-07T07:57:34;2.70;99.90
22442;DHT22;11388;54.456;9.752;2023-12-07T08:02:51;2.80;99.90
22442;DHT22;11388;54.456;9.752;2023-12-07T08:05:17;2.80;99.90
22442;DHT22;11388;54.456;9.752;2023-12-07T08:07:48;2.80;99.90
22442;DHT22;11388;54.456;9.752;2023-12-07T08:31:50;2.90;99.90
22442;DHT22;11388;54.456;9.752;2023-12-07T08:34:19;2.80;99.90
22442;DHT22;11388;54.456;9.752;2023-12-07T08:36:44;2.80;99.90
22442;DHT22;11388;54.456;9.752;2023-12-07T08:45:54;2.70;99.90
22442;DHT22;11388;54.456;9.752;2023-12-07T08:48:42;2.80;99.90
22442;DHT22;11388;54.456;9.752;2023-12-07T08:51:33;2.90;99.90
22442;DHT22;11388;54.456;9.752;2023-12-07T08:54:00;2.90;99.90
22442;DHT22;11388;54.456;9.752;2023-12-07T08:56:34;2.90;99.90
22442;DHT22;11388;54.456;9.752;2023-12-07T08:59:00;2.80;99.90
22442;DHT22;11388;54.456;9.752;2023-12-07T09:01:29;2.90;99.90
22442;DHT22;11388;54.456;9.752;2023-12-07T09:03:55;2.90;99.90
22442;DHT22;11388;54.456;9.752;2023-12-07T09:06:21;3.00;99.90
22442;DHT22;11388;54.456;9.752;2023-12-07T09:08:47;3.10;99.90
22442;DHT22;11388;54.456;9.752;2023-12-07T09:11:16;3.10;99.90
22442;DHT22;11388;54.456;9.752;2023-12-07T09:14:00;3.20;99.90
22442;DHT22;11388;54.456;9.752;2023-12-07T09:16:31;3.20;99.90
22442;DHT22;11388;54.456;9.752;2023-12-07T11:09:30;4.00;99.90
22442;DHT22;11388;54.456;9.752;2023-12-07T11:12:17;4.10;99.90
22442;DHT22;11388;54.456;9.752;2023-12-07T11:14:47;4.10;99.90
22442;DHT22;11388;54.456;9.752;2023-12-07T11:17:24;4.00;99.90
22442;DHT22;11388;54.456;9.752;2023-12-07T13:29:42;3.80;99.90
22442;DHT22;11388;54.456;9.752;2023-12-07T19:26:59;1.80;99.90
22442;DHT22;11388;54.456;9.752;2023-12-07T19:29:49;1.80;99.90
22442;DHT22;11388;54.456;9.752;2023-12-07T19:32:48;1.80;99.90
22442;DHT22;11388;54.456;9.752;2023-12-07T19:35:46;1.80;99.90
22442;DHT22;11388;54.456;9.752;2023-12-07T19:38:44;1.70;99.90
22442;DHT22;11388;54.456;9.752;2023-12-07T20:08:40;1.60;99.90
22442;DHT22;11388;54.456;9.752;2023-12-07T20:31:18;1.60;99.90
